Time;durP1;ratioP1;P1;durP2;ratioP2;P2;SDS_P1;SDS_P2;PMS_P1;PMS_P2;Temp;Humidity;BMP_temperature;BMP_pressure;BME280_temperature;BME280_humidity;BME280_pressure;Samples;Min_cycle;Max_cycle;Signal;HPM_P1;HPM_P2
2021/05/10 00:00:16;;;;;;;2.30;1.98;;;;;;;15.60;82.76;95454.72;5005504;28;20053;-63
2021/05/10 00:02:45;;;;;;;2.43;2.10;;;;;;;15.62;79.66;95447.38;5012984;28;20081;-64
2021/05/10 00:05:14;;;;;;;2.47;1.70;;;;;;;15.69;75.08;95456.22;5005727;28;20457;-63
2021/05/10 00:07:43;;;;;;;2.63;1.80;;;;;;;15.69;80.20;95452.72;4988903;28;20049;-63
2021/05/10 00:10:12;;;;;;;3.10;2.25;;;;;;;14.92;100.00;95458.13;4995145;28;20061;-64
2021/05/10 00:12:40;;;;;;;2.85;2.20;;;;;;;14.70;100.00;95461.91;5003774;28;20062;-61
2021/05/10 00:15:12;;;;;;;3.55;2.10;;;;;;;14.40;100.00;95459.41;5001002;28;20092;-64
2021/05/10 00:17:40;;;;;;;3.30;2.20;;;;;;;14.23;100.00;95456.22;5008619;28;20061;-64
2021/05/10 00:20:10;;;;;;;2.40;2.00;;;;;;;14.06;100.00;95454.84;5009696;28;20045;-67
2021/05/10 00:22:39;;;;;;;3.15;2.20;;;;;;;13.96;100.00;95468.41;5003972;28;20520;-64
2021/05/10 00:25:10;;;;;;;2.70;2.20;;;;;;;14.27;100.00;95461.94;5001999;28;20045;-64
2021/05/10 00:27:38;;;;;;;3.42;2.30;;;;;;;14.36;100.00;95463.47;4998694;28;20037;-64
2021/05/10 00:30:07;;;;;;;2.63;1.90;;;;;;;14.35;100.00;95463.63;5002681;28;20495;-64
2021/05/10 00:32:37;;;;;;;2.83;2.28;;;;;;;14.34;100.00;95462.81;4999265;28;20061;-65
2021/05/10 00:35:06;;;;;;;2.33;2.13;;;;;;;14.26;100.00;95460.31;5010481;28;20456;-63
2021/05/10 00:37:34;;;;;;;5.72;2.13;;;;;;;14.00;100.00;95466.22;5002967;28;20072;-64
2021/05/10 00:40:03;;;;;;;2.95;2.13;;;;;;;13.97;100.00;95454.19;5005280;28;20074;-64
2021/05/10 00:42:30;;;;;;;2.70;2.10;;;;;;;14.13;100.00;95457.56;4998687;28;20508;-63
2021/05/10 00:44:59;;;;;;;3.28;1.98;;;;;;;14.06;100.00;95468.09;5002992;28;20071;-62
2021/05/10 00:47:27;;;;;;;3.67;2.30;;;;;;;14.05;100.00;95466.47;5008101;28;20085;-64
2021/05/10 00:49:55;;;;;;;3.42;2.30;;;;;;;14.02;100.00;95461.53;5003849;28;20081;-62
2021/05/10 00:52:23;;;;;;;4.22;2.67;;;;;;;14.12;100.00;95464.69;5003695;28;20076;-64
2021/05/10 00:54:53;;;;;;;2.85;2.30;;;;;;;14.02;100.00;95465.00;5002407;28;20485;-65
2021/05/10 00:57:22;;;;;;;2.72;2.13;;;;;;;13.98;100.00;95463.75;5006040;28;20574;-63
2021/05/10 00:59:52;;;;;;;2.10;1.90;;;;;;;13.70;100.00;95473.47;5007734;28;20085;-64
2021/05/10 01:02:21;;;;;;;3.33;2.10;;;;;;;13.44;100.00;95481.94;5012835;28;20044;-66
2021/05/10 01:04:50;;;;;;;4.38;2.30;;;;;;;13.31;100.00;95479.97;5008640;28;20037;-64
2021/05/10 01:07:20;;;;;;;5.80;2.40;;;;;;;13.60;100.00;95476.44;5008218;28;20473;-64
2021/05/10 01:09:48;;;;;;;3.05;2.15;;;;;;;13.65;100.00;95476.69;5007404;28;20065;-62
2021/05/10 01:12:16;;;;;;;2.80;2.45;;;;;;;13.46;100.00;95477.31;5008999;28;20076;-65
2021/05/10 01:14:44;;;;;;;3.38;2.30;;;;;;;13.41;100.00;95472.53;5010375;28;20104;-63
2021/05/10 01:17:11;;;;;;;2.58;2.30;;;;;;;13.82;100.00;95476.44;5004151;28;20073;-62
2021/05/10 01:19:40;;;;;;;2.75;2.30;;;;;;;13.77;100.00;95471.72;5018000;28;20095;-60
2021/05/10 01:22:09;;;;;;;5.13;2.50;;;;;;;13.56;100.00;95466.38;5004991;28;20072;-63
2021/05/10 01:24:38;;;;;;;3.92;2.50;;;;;;;13.48;100.00;95473.44;5008902;28;20548;-62
2021/05/10 01:27:06;;;;;;;2.40;2.20;;;;;;;13.48;100.00;95459.38;5010814;28;20038;-64
2021/05/10 01:29:35;;;;;;;9.00;2.45;;;;;;;13.51;100.00;95466.94;5010142;28;20081;-64
2021/05/10 01:32:03;;;;;;;3.95;2.30;;;;;;;13.44;100.00;95464.22;5005487;28;20479;-63
2021/05/10 01:34:32;;;;;;;4.80;2.40;;;;;;;13.04;100.00;95474.31;5008458;28;20062;-63
2021/05/10 01:37:01;;;;;;;3.38;2.55;;;;;;;13.28;100.00;95467.94;5005207;28;20042;-64
2021/05/10 01:39:29;;;;;;;3.70;2.30;;;;;;;13.18;100.00;95469.16;5007221;28;20093;-64
2021/05/10 01:41:58;;;;;;;4.60;2.42;;;;;;;12.86;100.00;95465.91;5005779;28;20104;-62
2021/05/10 01:44:26;;;;;;;2.63;2.30;;;;;;;12.96;100.00;95476.22;5009460;28;20083;-62
2021/05/10 01:46:55;;;;;;;2.50;2.30;;;;;;;12.86;100.00;95471.22;5005302;28;20066;-66
2021/05/10 01:49:24;;;;;;;4.97;2.38;;;;;;;12.64;100.00;95475.59;5008997;28;20120;-63
2021/05/10 01:51:53;;;;;;;3.17;2.53;;;;;;;12.78;100.00;95473.97;5006752;28;20479;-64
2021/05/10 01:54:21;;;;;;;3.15;2.30;;;;;;;12.76;100.00;95473.31;5006718;28;20064;-62
2021/05/10 01:56:50;;;;;;;2.90;2.60;;;;;;;12.67;100.00;95482.34;5010369;28;20081;-63
2021/05/10 01:59:18;;;;;;;4.47;2.65;;;;;;;12.59;100.00;95484.09;5007154;28;20092;-64
2021/05/10 02:01:47;;;;;;;3.78;2.50;;;;;;;12.71;100.00;95486.28;5007811;28;20073;-61
2021/05/10 02:04:16;;;;;;;2.70;2.42;;;;;;;12.70;100.00;95472.22;4990687;28;20038;-62
2021/05/10 02:06:45;;;;;;;3.00;2.60;;;;;;;12.74;100.00;95470.03;5005655;28;20073;-65
2021/05/10 02:09:13;;;;;;;3.72;3.08;;;;;;;12.76;100.00;95475.97;5004687;28;20125;-64
2021/05/10 02:11:41;;;;;;;3.65;2.35;;;;;;;12.73;100.00;95478.97;5011272;28;20049;-64
2021/05/10 02:14:09;;;;;;;3.63;2.60;;;;;;;12.51;100.00;95485.97;5003686;28;20038;-64
2021/05/10 02:16:38;;;;;;;3.33;2.63;;;;;;;12.33;100.00;95478.38;5007024;28;20151;-64
2021/05/10 02:19:07;;;;;;;5.65;2.83;;;;;;;12.14;100.00;95477.06;5007717;28;20069;-65
2021/05/10 02:21:35;;;;;;;5.68;2.63;;;;;;;12.03;100.00;95482.78;5003467;28;20448;-64
2021/05/10 02:24:04;;;;;;;8.48;3.10;;;;;;;12.18;100.00;95473.09;5009103;28;20088;-65
2021/05/10 02:26:33;;;;;;;3.65;2.65;;;;;;;12.17;100.00;95471.41;5010719;28;20459;-64
2021/05/10 02:29:02;;;;;;;4.78;3.13;;;;;;;12.35;100.00;95473.72;5003025;28;20074;-63
2021/05/10 02:31:31;;;;;;;4.57;3.03;;;;;;;12.26;100.00;95458.97;5007078;28;20569;-62
2021/05/10 02:34:00;;;;;;;3.75;2.95;;;;;;;12.14;100.00;95465.66;4987315;28;20062;-61
2021/05/10 02:36:28;;;;;;;4.30;2.90;;;;;;;12.30;100.00;95463.69;4996187;28;20069;-64
2021/05/10 02:38:56;;;;;;;4.20;2.60;;;;;;;12.37;100.00;95463.81;4989377;28;20085;-62
2021/05/10 02:41:25;;;;;;;3.08;2.70;;;;;;;12.42;100.00;95466.75;4991145;28;20079;-64
2021/05/10 02:43:53;;;;;;;2.97;2.70;;;;;;;12.03;100.00;95467.72;5004521;28;20096;-62
2021/05/10 02:46:21;;;;;;;3.47;2.50;;;;;;;12.30;100.00;95470.81;5007259;28;20132;-63
2021/05/10 02:48:49;;;;;;;6.40;3.20;;;;;;;12.29;100.00;95477.94;5004408;28;20526;-63
2021/05/10 02:51:19;;;;;;;5.18;2.83;;;;;;;12.26;100.00;95477.47;5004952;28;20088;-63
2021/05/10 02:53:48;;;;;;;6.78;3.20;;;;;;;11.78;100.00;95482.13;5009348;28;20536;-65
2021/05/10 02:56:16;;;;;;;4.82;3.17;;;;;;;11.74;100.00;95476.34;5006257;28;20441;-64
2021/05/10 02:58:44;;;;;;;4.18;2.90;;;;;;;12.01;100.00;95468.91;5003758;28;20088;-63
2021/05/10 03:01:13;;;;;;;5.40;2.97;;;;;;;11.90;100.00;95477.25;4993016;28;20038;-64
2021/05/10 03:03:41;;;;;;;6.30;3.00;;;;;;;12.94;100.00;95478.22;4988904;28;20096;-64
2021/05/10 03:06:09;;;;;;;4.78;2.95;;;;;;;12.58;100.00;95473.69;4992909;28;20078;-63
2021/05/10 03:08:38;;;;;;;3.83;2.60;;;;;;;11.89;100.00;95479.09;4991946;28;20041;-64
2021/05/10 03:11:06;;;;;;;4.82;2.53;;;;;;;11.91;100.00;95476.28;4987288;28;20061;-63
2021/05/10 03:13:34;;;;;;;6.45;2.90;;;;;;;11.60;100.00;95479.75;5006020;28;20499;-63
2021/05/10 03:16:02;;;;;;;6.10;2.95;;;;;;;11.55;100.00;95474.97;5005796;28;20465;-64
2021/05/10 03:18:31;;;;;;;5.13;3.28;;;;;;;11.98;100.00;95477.22;4996819;28;20344;-65
2021/05/10 03:21:00;;;;;;;5.15;3.10;;;;;;;11.86;100.00;95482.06;4986778;28;20073;-62
2021/05/10 03:23:28;;;;;;;6.15;3.10;;;;;;;12.13;100.00;95478.06;5008976;28;20064;-64
2021/05/10 03:25:58;;;;;;;5.65;3.10;;;;;;;11.67;100.00;95474.59;5003537;28;20030;-64
2021/05/10 03:28:27;;;;;;;3.58;2.97;;;;;;;11.65;100.00;95475.56;4989898;28;20046;-63
2021/05/10 03:30:55;;;;;;;3.40;3.10;;;;;;;11.71;100.00;95476.72;5009881;28;20048;-63
2021/05/10 03:33:24;;;;;;;5.85;3.28;;;;;;;11.74;100.00;95467.63;5004773;28;20046;-64
2021/05/10 03:35:52;;;;;;;4.85;3.30;;;;;;;11.82;100.00;95462.25;5007229;28;20174;-64
2021/05/10 03:38:21;;;;;;;4.25;3.00;;;;;;;12.21;100.00;95462.13;4988219;28;20041;-64
2021/05/10 03:40:50;;;;;;;5.05;3.15;;;;;;;12.22;100.00;95468.25;4984805;28;20042;-63
2021/05/10 03:43:20;;;;;;;5.55;2.75;;;;;;;11.81;100.00;95473.84;5007343;28;20084;-64
2021/05/10 03:45:49;;;;;;;3.33;3.03;;;;;;;11.68;100.00;95471.78;4987041;28;20041;-63
2021/05/10 03:48:17;;;;;;;4.72;2.60;;;;;;;11.58;100.00;95479.91;5004141;28;20500;-63
2021/05/10 03:50:45;;;;;;;3.13;2.83;;;;;;;11.30;100.00;95497.25;5008804;28;20095;-61
2021/05/10 03:53:14;;;;;;;6.97;2.60;;;;;;;11.12;100.00;95505.41;5003393;28;20069;-63
2021/05/10 03:55:42;;;;;;;5.10;2.85;;;;;;;11.38;100.00;95502.47;5003814;28;20069;-62
2021/05/10 03:58:11;;;;;;;5.50;2.88;;;;;;;11.45;100.00;95503.44;4995412;28;20046;-64
2021/05/10 04:00:40;;;;;;;8.75;3.03;;;;;;;11.92;100.00;95499.88;5007497;28;20567;-65
2021/05/10 04:03:11;;;;;;;3.20;2.88;;;;;;;12.39;100.00;95505.91;4989168;28;20070;-62
2021/05/10 04:08:46;;;;;;;3.85;2.95;;;;;;;12.21;100.00;95503.59;5003519;28;20386;-65
2021/05/10 04:11:25;;;;;;;5.80;3.00;;;;;;;12.65;100.00;95505.50;5004727;28;20404;-64
2021/05/10 04:13:55;;;;;;;4.80;3.20;;;;;;;12.69;100.00;95504.13;5004900;28;20066;-64
2021/05/10 04:16:26;;;;;;;3.95;2.70;;;;;;;13.73;100.00;95495.13;5005515;28;20066;-64
2021/05/10 04:18:56;;;;;;;4.22;2.88;;;;;;;13.72;100.00;95485.50;5002172;28;20046;-65
2021/05/10 04:21:25;;;;;;;3.83;3.25;;;;;;;14.29;100.00;95489.13;5003771;28;20065;-63
2021/05/10 04:23:53;;;;;;;5.82;3.17;;;;;;;15.61;100.00;95482.94;4994421;28;20045;-63
2021/05/10 04:26:22;;;;;;;5.82;3.13;;;;;;;17.33;87.74;95471.47;4990064;28;20050;-64
2021/05/10 04:28:52;;;;;;;3.67;2.80;;;;;;;17.48;82.42;95479.19;4985549;28;20037;-65
2021/05/10 04:31:20;;;;;;;3.63;3.33;;;;;;;18.91;75.33;95478.66;5006536;28;20880;-66
2021/05/10 04:33:50;;;;;;;4.22;2.60;;;;;;;19.85;63.24;95482.72;5002006;28;20070;-64
2021/05/10 04:36:18;;;;;;;6.38;2.90;;;;;;;18.78;82.77;95494.81;5005334;28;20543;-65
2021/05/10 04:38:46;;;;;;;3.95;2.40;;;;;;;19.26;72.68;95497.63;5011787;28;20081;-65
2021/05/10 04:41:14;;;;;;;2.85;2.33;;;;;;;18.10;85.38;95500.84;5008042;28;20073;-65
2021/05/10 04:43:42;;;;;;;3.55;2.10;;;;;;;17.50;95.12;95488.63;5006946;28;20034;-60
2021/05/10 04:46:10;;;;;;;10.02;2.30;;;;;;;17.32;98.36;95483.16;5009762;28;20065;-62
2021/05/10 04:48:38;;;;;;;3.88;2.25;;;;;;;16.40;100.00;95478.81;5007354;28;20065;-62
2021/05/10 04:51:07;;;;;;;2.83;2.30;;;;;;;16.23;100.00;95479.19;4998765;28;20104;-60
2021/05/10 04:53:35;;;;;;;3.92;2.70;;;;;;;16.20;100.00;95478.78;4992656;28;20038;-63
2021/05/10 04:56:05;;;;;;;3.35;2.63;;;;;;;16.31;100.00;95484.34;5006985;28;20459;-61
2021/05/10 04:58:34;;;;;;;3.65;2.53;;;;;;;16.70;100.00;95495.97;4999102;28;20455;-60
2021/05/10 05:01:03;;;;;;;3.25;2.33;;;;;;;17.41;100.00;95489.91;4995930;28;20037;-59
2021/05/10 05:03:31;;;;;;;4.68;2.58;;;;;;;18.60;92.71;95493.72;5012115;28;20061;-61
2021/05/10 05:05:59;;;;;;;2.83;2.13;;;;;;;19.33;78.75;95495.69;5008397;28;20558;-63
2021/05/10 05:08:28;;;;;;;3.58;2.30;;;;;;;19.16;78.33;95503.47;5011033;28;20085;-65
2021/05/10 05:10:56;;;;;;;5.18;2.50;;;;;;;19.08;79.10;95500.28;5006964;28;20062;-61
2021/05/10 05:13:25;;;;;;;3.58;2.42;;;;;;;18.88;83.31;95500.47;5007450;28;20050;-63
2021/05/10 05:15:53;;;;;;;3.13;2.53;;;;;;;20.19;72.13;95503.69;5010694;28;20073;-63
2021/05/10 05:18:21;;;;;;;5.90;2.40;;;;;;;20.46;72.50;95506.78;5007389;28;20069;-64
2021/05/10 05:20:50;;;;;;;4.93;2.83;;;;;;;20.55;71.32;95516.16;5008822;28;20085;-65
2021/05/10 05:23:21;;;;;;;3.20;2.50;;;;;;;23.13;54.60;95518.09;5007663;28;20518;-64
2021/05/10 05:25:56;;;;;;;5.13;2.67;;;;;;;24.12;51.54;95511.84;4987026;28;20065;-64
2021/05/10 05:28:24;;;;;;;5.88;2.55;;;;;;;23.78;52.15;95526.50;5004685;28;20062;-63
2021/05/10 05:30:54;;;;;;;5.97;2.30;;;;;;;25.44;41.90;95514.06;5006918;28;20120;-63
2021/05/10 05:33:22;;;;;;;4.28;2.20;;;;;;;25.14;44.01;95516.56;5008255;28;20088;-64
2021/05/10 05:35:51;;;;;;;5.05;2.10;;;;;;;24.82;43.70;95530.88;5009777;28;20061;-64
2021/05/10 05:38:19;;;;;;;2.58;1.98;;;;;;;25.05;43.91;95527.81;5006219;28;20049;-63
2021/05/10 05:40:48;;;;;;;3.08;2.10;;;;;;;24.58;41.98;95527.69;5007878;28;20077;-64
2021/05/10 05:43:18;;;;;;;2.28;1.77;;;;;;;24.64;40.35;95529.38;5009895;28;20070;-63
2021/05/10 05:45:46;;;;;;;;;;;;;;;23.31;40.95;95543.09;5007742;28;20053;-63
2021/05/10 05:48:14;;;;;;;3.08;2.08;;;;;;;22.67;43.56;95548.78;5004139;28;19977;-63
2021/05/10 05:50:43;;;;;;;2.63;2.10;;;;;;;22.27;49.56;95555.06;5007771;28;20081;-64
2021/05/10 05:53:12;;;;;;;3.42;2.25;;;;;;;22.14;52.27;95549.97;5008498;28;20555;-64
2021/05/10 05:55:41;;;;;;;4.00;2.15;;;;;;;21.85;54.03;95555.31;5005036;28;20069;-62
2021/05/10 05:58:10;;;;;;;2.72;2.20;;;;;;;21.25;58.27;95566.31;5005087;28;20037;-65
2021/05/10 06:00:40;;;;;;;4.53;2.58;;;;;;;21.29;60.93;95552.19;5009360;28;20065;-61
2021/05/10 06:03:08;;;;;;;5.15;2.50;;;;;;;21.08;61.82;95560.81;5003341;28;20072;-65
2021/05/10 06:05:37;;;;;;;3.08;2.47;;;;;;;21.27;58.59;95559.66;5010699;28;20504;-63
2021/05/10 06:08:06;;;;;;;9.18;2.80;;;;;;;21.43;56.29;95554.66;5011486;28;20528;-65
2021/05/10 06:10:35;;;;;;;6.85;2.40;;;;;;;21.28;56.63;95553.25;5005853;28;20048;-59
2021/05/10 06:13:04;;;;;;;7.70;2.35;;;;;;;20.57;58.43;95557.72;5009520;28;20072;-60
2021/05/10 06:15:32;;;;;;;5.00;2.30;;;;;;;20.60;59.51;95556.44;5009405;28;20041;-64
2021/05/10 06:18:01;;;;;;;7.13;2.60;;;;;;;20.77;59.95;95552.06;5003987;28;20429;-64
2021/05/10 06:20:30;;;;;;;3.33;2.33;;;;;;;20.98;60.50;95544.50;5009541;28;20551;-64
2021/05/10 06:22:58;;;;;;;3.80;2.45;;;;;;;21.54;59.87;95543.94;5007896;28;20068;-63
2021/05/10 06:25:27;;;;;;;3.97;2.17;;;;;;;21.29;60.25;95556.75;5006755;28;20038;-64
2021/05/10 06:27:55;;;;;;;5.32;2.22;;;;;;;;;;5004730;28;20680;-63
2021/05/10 06:30:24;;;;;;;6.43;2.67;;;;;;;21.24;65.06;95560.13;5008042;28;20062;-63
2021/05/10 06:32:53;;;;;;;6.35;2.55;;;;;;;22.18;60.87;95559.19;5011331;28;20049;-64
2021/05/10 06:35:23;;;;;;;4.60;2.70;;;;;;;22.53;62.11;95556.34;5008420;28;21934;-61
2021/05/10 06:37:51;;;;;;;2.95;2.30;;;;;;;23.07;59.93;95564.00;5008965;28;20045;-63
2021/05/10 06:40:20;;;;;;;5.10;2.47;;;;;;;23.52;57.61;95561.16;5006544;28;20042;-64
2021/05/10 06:42:48;;;;;;;3.33;2.13;;;;;;;22.83;52.26;95557.91;5005607;28;20065;-66
2021/05/10 06:45:16;;;;;;;5.88;2.30;;;;;;;23.11;52.73;95554.38;5007512;28;20108;-61
2021/05/10 06:47:45;;;;;;;3.42;2.00;;;;;;;23.87;50.61;95558.13;5008797;28;20293;-65
2021/05/10 06:50:13;;;;;;;2.78;1.90;;;;;;;23.86;49.66;95558.41;5004022;28;20066;-63
2021/05/10 06:52:42;;;;;;;5.95;2.25;;;;;;;24.09;50.06;95557.34;5007016;28;20076;-65
2021/05/10 06:55:13;;;;;;;3.53;1.95;;;;;;;23.43;46.39;95559.94;5004088;28;20620;-64
2021/05/10 06:57:42;;;;;;;4.95;1.90;;;;;;;23.42;46.88;95556.44;5004669;28;20073;-64
2021/05/10 07:00:11;;;;;;;3.33;1.80;;;;;;;23.35;50.50;95557.69;5012540;28;20073;-64
2021/05/10 07:02:39;;;;;;;7.40;2.00;;;;;;;23.49;50.12;95567.03;5008877;28;20483;-63
2021/05/10 07:05:09;;;;;;;5.55;1.80;;;;;;;24.39;47.38;95570.31;5007417;28;20066;-67
2021/05/10 07:07:36;;;;;;;2.33;1.90;;;;;;;24.83;52.41;95576.44;5007665;28;20096;-63
2021/05/10 07:10:06;;;;;;;4.53;1.98;;;;;;;24.63;53.37;95582.44;5005791;28;20034;-64
2021/05/10 07:12:34;;;;;;;2.38;1.73;;;;;;;25.03;52.04;95581.19;4998336;28;20508;-64
2021/05/10 07:15:02;;;;;;;4.93;2.08;;;;;;;24.67;52.15;95587.34;5008409;28;20058;-66
2021/05/10 07:17:30;;;;;;;5.40;2.10;;;;;;;25.18;51.06;95585.91;5009512;28;20081;-66
2021/05/10 07:19:58;;;;;;;3.92;1.70;;;;;;;26.08;43.81;95591.34;5005536;28;20085;-62
2021/05/10 07:22:26;;;;;;;4.72;1.90;;;;;;;26.24;43.04;95592.22;5008064;28;20564;-66
2021/05/10 07:24:55;;;;;;;3.20;1.90;;;;;;;26.37;43.59;95594.44;5004540;28;20065;-64
2021/05/10 07:27:25;;;;;;;5.00;2.20;;;;;;;24.82;48.25;95595.59;4987791;28;20535;-64
2021/05/10 07:29:53;;;;;;;5.03;2.00;;;;;;;25.01;48.47;95582.50;5009779;28;20057;-64
2021/05/10 07:32:21;;;;;;;5.13;2.25;;;;;;;24.89;51.82;95584.59;5007432;28;20096;-64
2021/05/10 07:34:50;;;;;;;3.00;1.80;;;;;;;25.67;42.74;95596.53;5004186;28;20494;-62
2021/05/10 07:37:18;;;;;;;3.70;1.55;;;;;;;25.61;40.42;95594.88;5004991;28;20057;-64
2021/05/10 07:39:46;;;;;;;3.42;1.88;;;;;;;26.63;39.19;95597.22;5004909;28;20479;-65
2021/05/10 07:42:15;;;;;;;5.10;1.83;;;;;;;26.57;39.77;95601.03;5005853;28;20069;-64
2021/05/10 07:44:44;;;;;;;3.65;1.80;;;;;;;26.65;39.42;95590.47;5008243;28;20088;-61
2021/05/10 07:47:13;;;;;;;3.25;1.90;;;;;;;26.87;39.82;95590.22;5005530;28;20045;-63
2021/05/10 07:49:42;;;;;;;4.03;1.63;;;;;;;26.87;39.04;95584.00;5005145;28;20551;-66
2021/05/10 07:52:10;;;;;;;2.53;1.55;;;;;;;26.06;41.54;95579.19;5005297;28;20065;-61
2021/05/10 07:54:39;;;;;;;6.63;1.85;;;;;;;26.94;39.76;95571.03;5002234;28;20074;-61
2021/05/10 07:57:08;;;;;;;4.40;1.58;;;;;;;27.30;39.20;95573.78;5010319;28;20065;-62
2021/05/10 07:59:37;;;;;;;6.45;1.70;;;;;;;26.58;39.90;95562.88;5008031;28;20104;-64
2021/05/10 08:02:06;;;;;;;6.15;1.77;;;;;;;26.86;39.00;95571.56;5002429;28;20078;-63
2021/05/10 08:04:35;;;;;;;;;;;;;;;27.10;39.45;95569.16;4998814;28;20041;-59
2021/05/10 08:07:03;;;;;;;3.63;1.80;;;;;;;26.40;39.93;95569.59;5000593;28;20342;-66
2021/05/10 08:09:33;;;;;;;3.90;1.60;;;;;;;26.08;39.04;95563.50;5005253;28;20109;-65
2021/05/10 08:12:02;;;;;;;4.38;2.00;;;;;;;26.70;38.73;95560.75;5009452;28;20551;-63
2021/05/10 08:14:31;;;;;;;5.05;1.70;;;;;;;27.40;39.32;95568.34;5007978;28;20073;-64
2021/05/10 08:16:59;;;;;;;3.33;1.70;;;;;;;27.35;37.27;95566.44;5005240;28;20358;-65
2021/05/10 08:19:29;;;;;;;6.07;1.60;;;;;;;27.98;37.13;95565.25;5003104;28;20046;-62
2021/05/10 08:21:58;;;;;;;4.93;1.67;;;;;;;26.93;36.17;95561.28;5004437;28;20072;-64
2021/05/10 08:24:26;;;;;;;4.25;1.30;;;;;;;27.88;35.94;95557.97;5002869;28;20688;-65
2021/05/10 08:26:54;;;;;;;6.72;1.60;;;;;;;27.45;33.79;95562.91;5004291;28;20477;-64
2021/05/10 08:29:23;;;;;;;4.88;1.55;;;;;;;27.83;34.59;95552.56;5007182;28;20487;-63
2021/05/10 08:31:52;;;;;;;3.58;1.50;;;;;;;27.99;34.10;95550.63;5001871;28;20043;-62
2021/05/10 08:34:21;;;;;;;6.80;1.40;;;;;;;27.75;33.42;95542.28;4988019;28;20096;-61
2021/05/10 08:36:50;;;;;;;3.83;1.50;;;;;;;28.32;32.54;95532.81;4983860;28;20582;-61
2021/05/10 08:39:19;;;;;;;4.90;1.48;;;;;;;27.95;33.78;95528.69;5006360;28;20061;-61
2021/05/10 08:41:48;;;;;;;5.10;2.08;;;;;;;28.00;32.40;95520.50;5008569;28;20046;-60
2021/05/10 08:44:17;;;;;;;3.15;1.50;;;;;;;27.59;33.00;95527.94;4985564;28;20061;-60
2021/05/10 08:46:45;;;;;;;6.78;1.70;;;;;;;28.36;32.01;95525.78;5003548;28;20085;-60
2021/05/10 08:49:18;;;;;;;5.50;1.88;;;;;;;28.19;31.96;95530.75;4989657;28;20065;-61
2021/05/10 08:51:47;;;;;;;2.85;1.50;;;;;;;28.77;32.04;95536.38;4986974;28;20570;-58
2021/05/10 08:54:24;;;;;;;4.35;1.60;;;;;;;27.54;31.48;95539.63;4985934;28;20034;-63
2021/05/10 08:56:53;;;;;;;4.38;1.52;;;;;;;28.53;31.31;95530.84;5009115;28;20108;-63
2021/05/10 08:59:21;;;;;;;2.55;1.30;;;;;;;28.59;32.42;95535.13;4986456;28;20394;-62
2021/05/10 09:01:52;;;;;;;18.88;2.58;;;;;;;28.75;32.82;95523.09;5005054;28;20038;-63
2021/05/10 09:04:28;;;;;;;2.28;1.50;;;;;;;29.17;31.02;95510.81;5007216;28;20041;-64
2021/05/10 09:07:17;;;;;;;2.42;1.35;;;;;;;28.83;29.48;95519.75;5003561;28;20042;-63
2021/05/10 09:09:58;;;;;;;5.72;1.67;;;;;;;28.51;30.76;95516.75;4983087;28;20073;-63
2021/05/10 09:12:41;;;;;;;5.22;1.92;;;;;;;29.10;29.98;95521.19;5002674;28;20538;-63
2021/05/10 09:15:24;;;;;;;4.40;1.77;;;;;;;29.16;31.28;95519.25;5006218;28;20081;-65
2021/05/10 09:17:53;;;;;;;3.13;1.30;;;;;;;29.93;29.46;95513.84;4990445;28;20053;-64
2021/05/10 09:20:23;;;;;;;4.47;1.73;;;;;;;29.66;30.15;95519.84;5004368;28;20046;-65
2021/05/10 09:22:53;;;;;;;6.78;2.03;;;;;;;28.83;30.25;95506.19;5005446;28;20042;-63
2021/05/10 09:25:29;;;;;;;4.43;1.30;;;;;;;28.87;29.44;95506.44;5005759;28;20064;-65
2021/05/10 09:28:10;;;;;;;2.25;1.30;;;;;;;28.84;30.51;95502.41;5006646;28;20069;-63
2021/05/10 09:30:40;;;;;;;5.57;1.55;;;;;;;29.54;29.66;95493.06;4996784;28;20447;-63
2021/05/10 09:33:16;;;;;;;3.60;1.25;;;;;;;29.58;29.05;95489.47;5005813;28;20073;-63
2021/05/10 09:35:44;;;;;;;3.05;1.30;;;;;;;29.79;27.89;95492.78;5008963;28;20532;-60
2021/05/10 09:38:15;;;;;;;3.97;1.60;;;;;;;29.87;29.63;95488.66;5008567;28;20038;-64
2021/05/10 09:40:46;;;;;;;2.63;1.30;;;;;;;29.28;27.99;95481.66;5005957;28;20357;-62
2021/05/10 09:43:17;;;;;;;4.88;1.45;;;;;;;30.16;28.38;95476.84;5006752;28;20066;-61
2021/05/10 09:45:47;;;;;;;4.47;1.42;;;;;;;30.17;26.78;95473.00;5008369;28;20073;-64
2021/05/10 09:48:20;;;;;;;5.20;1.30;;;;;;;29.39;27.42;95482.34;5007247;28;20042;-65
2021/05/10 09:50:51;;;;;;;2.60;1.33;;;;;;;29.62;27.79;95478.06;5007310;28;20081;-61
2021/05/10 09:53:28;;;;;;;3.65;1.50;;;;;;;30.06;28.85;95471.53;5007359;28;20353;-59
2021/05/10 09:55:58;;;;;;;4.03;1.63;;;;;;;30.18;28.57;95475.47;5009924;28;20038;-59
2021/05/10 09:58:40;;;;;;;6.95;1.60;;;;;;;29.82;27.61;95488.69;5007566;28;20520;-57
2021/05/10 10:01:09;;;;;;;5.53;1.58;;;;;;;29.91;27.16;95497.84;5004149;28;20062;-61
2021/05/10 10:03:40;;;;;;;2.27;1.30;;;;;;;30.44;27.97;95505.84;5015633;28;20755;-61
2021/05/10 10:06:10;;;;;;;3.30;1.45;;;;;;;30.71;26.96;95504.34;5004978;28;21107;-63
2021/05/10 10:08:41;;;;;;;4.80;1.40;;;;;;;31.17;26.16;95511.78;5010601;28;20069;-62
2021/05/10 10:11:14;;;;;;;4.25;1.38;;;;;;;29.95;26.78;95506.22;5007525;28;20072;-63
2021/05/10 10:13:44;;;;;;;3.88;1.30;;;;;;;29.66;26.01;95509.78;5005721;28;20511;-63
2021/05/10 10:16:17;;;;;;;5.07;1.25;;;;;;;30.37;25.69;95502.69;5004748;28;20034;-64
2021/05/10 10:18:48;;;;;;;4.07;1.33;;;;;;;30.55;26.48;95508.41;5006557;28;20074;-63
2021/05/10 10:21:19;;;;;;;4.22;1.50;;;;;;;30.50;26.98;95499.22;5005198;28;20096;-63
2021/05/10 10:23:53;;;;;;;4.20;1.10;;;;;;;29.72;25.39;95510.56;5016590;28;20070;-62
2021/05/10 10:26:42;;;;;;;5.03;1.30;;;;;;;29.77;26.15;95508.59;5007276;28;20234;-62
2021/05/10 10:29:13;;;;;;;3.70;1.30;;;;;;;30.19;25.46;95501.56;5008197;28;20070;-63
2021/05/10 10:31:45;;;;;;;5.13;1.23;;;;;;;30.29;24.61;95489.75;5005397;28;20038;-63
2021/05/10 10:34:26;;;;;;;2.97;1.40;;;;;;;30.25;25.04;95496.88;5005370;28;20061;-66
2021/05/10 10:36:58;;;;;;;8.02;1.60;;;;;;;30.25;27.04;95492.25;5005584;28;20073;-63
2021/05/10 10:39:27;;;;;;;4.30;1.50;;;;;;;30.46;27.64;95494.69;5005685;28;20443;-63
2021/05/10 10:41:57;;;;;;;4.45;1.45;;;;;;;30.71;26.25;95490.75;5006154;28;20061;-60
2021/05/10 10:44:31;;;;;;;3.28;1.00;;;;;;;30.64;24.78;95496.56;5009225;28;20096;-62
2021/05/10 10:47:00;;;;;;;2.75;1.30;;;;;;;31.32;25.32;95497.16;5007795;28;20073;-62
2021/05/10 10:49:31;;;;;;;7.90;1.70;;;;;;;30.94;24.64;95487.13;5013768;28;20092;-63
2021/05/10 10:52:00;;;;;;;4.90;1.35;;;;;;;30.78;25.37;95485.75;5005679;28;20539;-61
2021/05/10 10:54:29;;;;;;;3.75;1.40;;;;;;;30.09;26.04;95495.44;5008462;28;20725;-63
2021/05/10 10:56:59;;;;;;;5.57;1.40;;;;;;;29.93;25.50;95492.91;5006931;28;20045;-61
2021/05/10 10:59:36;;;;;;;4.78;1.30;;;;;;;29.89;25.53;95501.94;5007476;28;20082;-61
2021/05/10 11:02:17;;;;;;;6.82;1.42;;;;;;;30.77;26.72;95502.41;5005841;28;20046;-63
2021/05/10 11:04:47;;;;;;;2.72;1.30;;;;;;;31.15;26.16;95516.75;5006568;28;20072;-63
2021/05/10 11:07:16;;;;;;;6.95;1.60;;;;;;;30.86;26.10;95516.94;5004644;28;20096;-62
2021/05/10 11:09:53;;;;;;;3.40;1.58;;;;;;;31.17;25.09;95518.03;5003215;28;20531;-64
2021/05/10 11:12:51;;;;;;;3.92;1.45;;;;;;;30.24;26.17;95517.00;5006077;28;20567;-62
2021/05/10 11:15:48;;;;;;;4.28;1.40;;;;;;;31.15;26.10;95514.81;5002831;28;20081;-63
2021/05/10 11:18:35;;;;;;;3.22;1.35;;;;;;;30.70;24.04;95516.34;5004726;28;20065;-62
2021/05/10 11:21:06;;;;;;;4.53;1.38;;;;;;;30.70;24.44;95500.03;4999147;28;20066;-60
2021/05/10 11:23:39;;;;;;;4.22;1.40;;;;;;;31.07;24.53;95498.34;5000051;28;20109;-63
2021/05/10 11:26:08;;;;;;;3.13;1.40;;;;;;;31.30;26.52;95494.66;5006471;28;20112;-62
2021/05/10 11:28:47;;;;;;;6.32;1.65;;;;;;;30.93;26.30;95488.22;4997748;28;20084;-62
2021/05/10 11:31:33;;;;;;;6.22;1.50;;;;;;;31.47;25.31;95490.59;5005341;28;20393;-63
2021/05/10 11:34:15;;;;;;;4.32;1.50;;;;;;;31.25;25.96;95485.78;5004592;28;20037;-62
2021/05/10 11:36:49;;;;;;;2.88;1.40;;;;;;;30.76;25.57;95487.97;5002471;28;20061;-63
2021/05/10 11:39:25;;;;;;;4.60;1.50;;;;;;;30.97;25.50;95477.53;5003909;28;20081;-61
2021/05/10 11:41:58;;;;;;;4.22;1.50;;;;;;;30.66;27.20;95478.03;5008310;28;20084;-61
2021/05/10 11:44:29;;;;;;;4.18;1.50;;;;;;;31.13;26.50;95469.94;5002662;28;20050;-64
2021/05/10 11:46:59;;;;;;;4.35;1.50;;;;;;;31.23;26.58;95468.94;5009551;28;20058;-63